Terminal Aerodrome Forecast
Issued by NWS

Home | Current Version | Previous Version | Text Only | Print | Product List | Glossary On
Versions: 1 2 3 4 5 6 7 8 9 10 11 12 13 14 15
000
FTUS41 KBOX 201722
TAFACK
TAF
KACK 201722Z 2018/2118 27018G30KT P6SM FEW040
     FM210600 26012KT P6SM FEW140
     FM210700 26011G21KT P6SM FEW250
     FM211200 23010G21KT P6SM FEW250=

USA.gov is the U.S. government's official web portal to all federal, state and local government web resources and services.